^^
Station Historical Data
Daily Summary for March 25, 2019 Units:  English    Metric   Both
« Previous Day
Next Day »
Daily Weekly Monthly Yearly Custom
  High: Low: Average:
Temperature: 31.5 °F 23.0 °F 26.7 °F
Dew Point: 28.0 °F 19.7 °F 22.6 °F
Humidity: 89% 76% 84%
Wind Speed: 9.0mph 1.0mph 4.7mph
Wind Gust: 13.0mph - -
Wind- - ESE
Pressure: 30.39 in 30.28 in -
Precipitation: 0.00 in    
Historical Graphs
 
 
Tabular Data for March 25, 2019
Time Temperature Dew Point Pressure Wind Wind Speed Wind Gust Humidity Rainfall Rate (Hourly) solar Conditions
00:04 23.6 °F 20.6 °F 30.38 in ENE 3.0 mph 13.0 mph 88% 0.00 in 0.00 W/m2
00:09 23.6 °F 20.3 °F 30.37 in ENE 5.0 mph 11.0 mph 87% 0.00 in 0.00 W/m2
00:14 23.6 °F 20.6 °F 30.38 in ENE 5.0 mph 11.0 mph 88% 0.00 in 0.00 W/m2
00:19 23.6 °F 20.6 °F 30.38 in ENE 5.0 mph 11.0 mph 88% 0.00 in 0.00 W/m2
00:24 23.6 °F 20.6 °F 30.37 in ENE 7.0 mph 9.0 mph 88% 0.00 in 0.00 W/m2
00:29 23.5 °F 20.5 °F 30.37 in East 7.0 mph 9.0 mph 88% 0.00 in 0.00 W/m2
00:34 23.4 °F 20.4 °F 30.37 in East 8.0 mph 9.0 mph 88% 0.00 in 0.00 W/m2
00:39 23.5 °F 20.5 °F 30.38 in East 9.0 mph 10.0 mph 88% 0.00 in 0.00 W/m2
00:44 23.4 °F 20.4 °F 30.37 in ENE 7.0 mph 11.0 mph 88% 0.00 in 0.00 W/m2
00:49 23.3 °F 20.3 °F 30.37 in ENE 7.0 mph 11.0 mph 88% 0.00 in 0.00 W/m2
00:54 23.3 °F 20.3 °F 30.37 in East 8.0 mph 10.0 mph 88% 0.00 in 0.00 W/m2
00:59 23.4 °F 20.4 °F 30.37 in East 5.0 mph 10.0 mph 88% 0.00 in 0.00 W/m2
01:04 23.3 °F 20.3 °F 30.37 in East 6.0 mph 10.0 mph 88% 0.00 in 0.00 W/m2
01:09 23.4 °F 20.4 °F 30.38 in ENE 7.0 mph 10.0 mph 88% 0.00 in 0.00 W/m2
01:14 23.3 °F 20.3 °F 30.38 in East 8.0 mph 10.0 mph 88% 0.00 in 0.00 W/m2
01:19 23.3 °F 20.3 °F 30.38 in East 8.0 mph 10.0 mph 88% 0.00 in 0.00 W/m2
01:24 23.3 °F 20.3 °F 30.38 in East 7.0 mph 9.0 mph 88% 0.00 in 0.00 W/m2
01:29 23.3 °F 20.3 °F 30.38 in ESE 7.0 mph 9.0 mph 88% 0.00 in 0.00 W/m2
01:34 23.3 °F 20.3 °F 30.38 in NE 8.0 mph 9.0 mph 88% 0.00 in 0.00 W/m2
01:39 23.2 °F 20.2 °F 30.38 in ESE 3.0 mph 9.0 mph 88% 0.00 in 0.00 W/m2
01:44 23.2 °F 20.2 °F 30.38 in ENE 5.0 mph 9.0 mph 88% 0.00 in 0.00 W/m2
01:49 23.2 °F 20.2 °F 30.38 in ENE 4.0 mph 9.0 mph 88% 0.00 in 0.00 W/m2
01:54 23.1 °F 20.1 °F 30.37 in East 7.0 mph 8.0 mph 88% 0.00 in 0.00 W/m2
01:59 23.1 °F 20.1 °F 30.37 in ENE 4.0 mph 8.0 mph 88% 0.00 in 0.00 W/m2
02:04 23.1 °F 20.1 °F 30.37 in East 7.0 mph 9.0 mph 88% 0.00 in 0.00 W/m2
02:09 23.2 °F 20.2 °F 30.38 in East 3.0 mph 9.0 mph 88% 0.00 in 0.00 W/m2
02:14 23.2 °F 20.2 °F 30.37 in East 6.0 mph 8.0 mph 88% 0.00 in 0.00 W/m2
02:19 23.2 °F 20.2 °F 30.37 in East 8.0 mph 8.0 mph 88% 0.00 in 0.00 W/m2
02:24 23.3 °F 20.3 °F 30.38 in East 6.0 mph 8.0 mph 88% 0.00 in 0.00 W/m2
02:29 23.1 °F 20.1 °F 30.38 in ENE 5.0 mph 8.0 mph 88% 0.00 in 0.00 W/m2
02:34 23.1 °F 20.1 °F 30.38 in ENE 5.0 mph 8.0 mph 88% 0.00 in 0.00 W/m2
02:39 23.1 °F 20.1 °F 30.37 in ENE 5.0 mph 8.0 mph 88% 0.00 in 0.00 W/m2
02:44 23.1 °F 20.1 °F 30.37 in ENE 4.0 mph 8.0 mph 88% 0.00 in 0.00 W/m2
02:49 23.1 °F 20.1 °F 30.37 in NE 3.0 mph 9.0 mph 88% 0.00 in 0.00 W/m2
02:54 23.1 °F 20.1 °F 30.37 in East 7.0 mph 10.0 mph 88% 0.00 in 0.00 W/m2
02:59 23.1 °F 20.1 °F 30.37 in East 5.0 mph 10.0 mph 88% 0.00 in 0.00 W/m2
03:04 23.2 °F 20.2 °F 30.38 in East 6.0 mph 8.0 mph 88% 0.00 in 0.00 W/m2
03:09 23.2 °F 20.2 °F 30.38 in East 5.0 mph 8.0 mph 88% 0.00 in 0.00 W/m2
03:14 23.2 °F 20.2 °F 30.37 in East 6.0 mph 8.0 mph 88% 0.00 in 0.00 W/m2
03:19 23.3 °F 20.3 °F 30.37 in East 5.0 mph 8.0 mph 88% 0.00 in 0.00 W/m2
03:24 23.3 °F 20.3 °F 30.37 in East 6.0 mph 8.0 mph 88% 0.00 in 0.00 W/m2
03:29 23.2 °F 19.9 °F 30.37 in East 6.0 mph 8.0 mph 87% 0.00 in 0.00 W/m2
03:34 23.3 °F 20.0 °F 30.37 in East 5.0 mph 8.0 mph 87% 0.00 in 0.00 W/m2
03:39 23.2 °F 19.9 °F 30.37 in ENE 4.0 mph 7.0 mph 87% 0.00 in 0.00 W/m2
03:44 23.2 °F 19.9 °F 30.37 in East 5.0 mph 8.0 mph 87% 0.00 in 0.00 W/m2
03:49 23.2 °F 19.9 °F 30.37 in East 4.0 mph 8.0 mph 87% 0.00 in 0.00 W/m2
03:54 23.1 °F 19.8 °F 30.38 in NE 5.0 mph 7.0 mph 87% 0.00 in 0.00 W/m2
03:59 23.2 °F 19.9 °F 30.37 in ENE 3.0 mph 7.0 mph 87% 0.00 in 0.00 W/m2
04:04 23.2 °F 19.9 °F 30.37 in East 2.0 mph 6.0 mph 87% 0.00 in 0.00 W/m2
04:09 23.2 °F 19.9 °F 30.37 in East 3.0 mph 7.0 mph 87% 0.00 in 0.00 W/m2
04:14 23.1 °F 19.8 °F 30.37 in ENE 5.0 mph 7.0 mph 87% 0.00 in 0.00 W/m2
04:19 23.1 °F 19.8 °F 30.37 in East 4.0 mph 8.0 mph 87% 0.00 in 0.00 W/m2
04:24 23.0 °F 19.7 °F 30.36 in ENE 7.0 mph 8.0 mph 87% 0.00 in 0.00 W/m2
04:29 23.0 °F 19.7 °F 30.36 in ENE 3.0 mph 8.0 mph 87% 0.00 in 0.00 W/m2
04:34 23.0 °F 19.7 °F 30.36 in East 7.0 mph 8.0 mph 87% 0.00 in 0.00 W/m2
04:39 23.1 °F 19.8 °F 30.36 in East 7.0 mph 8.0 mph 87% 0.00 in 0.00 W/m2
04:44 23.0 °F 19.7 °F 30.36 in East 3.0 mph 8.0 mph 87% 0.00 in 0.00 W/m2
04:49 23.0 °F 19.7 °F 30.36 in East 3.0 mph 8.0 mph 87% 0.00 in 0.00 W/m2
04:54 23.0 °F 19.7 °F 30.36 in ENE 4.0 mph 7.0 mph 87% 0.00 in 0.00 W/m2
04:59 23.0 °F 19.7 °F 30.36 in ENE 4.0 mph 8.0 mph 87% 0.00 in 0.00 W/m2
05:04 23.1 °F 19.8 °F 30.36 in East 7.0 mph 8.0 mph 87% 0.00 in 0.00 W/m2
05:09 23.1 °F 19.8 °F 30.36 in ENE 5.0 mph 8.0 mph 87% 0.00 in 0.00 W/m2
05:14 23.1 °F 19.8 °F 30.36 in ENE 5.0 mph 8.0 mph 87% 0.00 in 0.00 W/m2
05:19 23.1 °F 19.8 °F 30.36 in ENE 4.0 mph 7.0 mph 87% 0.00 in 0.00 W/m2
05:24 23.2 °F 19.9 °F 30.36 in East 3.0 mph 6.0 mph 87% 0.00 in 0.00 W/m2
05:29 23.1 °F 19.8 °F 30.36 in ENE 5.0 mph 7.0 mph 87% 0.00 in 0.00 W/m2
05:34 23.1 °F 19.8 °F 30.36 in ENE 5.0 mph 7.0 mph 87% 0.00 in 0.00 W/m2
05:39 23.1 °F 19.8 °F 30.36 in East 6.0 mph 7.0 mph 87% 0.00 in 0.00 W/m2
05:44 23.1 °F 19.8 °F 30.36 in East 5.0 mph 7.0 mph 87% 0.00 in 0.00 W/m2
05:49 23.1 °F 19.8 °F 30.36 in ENE 3.0 mph 7.0 mph 87% 0.00 in 0.00 W/m2
05:54 23.1 °F 19.8 °F 30.36 in ENE 3.0 mph 6.0 mph 87% 0.00 in 0.00 W/m2
05:59 23.2 °F 20.2 °F 30.36 in East 3.0 mph 6.0 mph 88% 0.00 in 0.00 W/m2
06:04 23.2 °F 20.2 °F 30.36 in ESE 2.0 mph 7.0 mph 88% 0.00 in 0.00 W/m2
06:09 23.2 °F 19.9 °F 30.36 in East 1.0 mph 7.0 mph 87% 0.00 in 0.00 W/m2
06:14 23.2 °F 20.2 °F 30.36 in East 2.0 mph 7.0 mph 88% 0.00 in 0.00 W/m2
06:19 23.2 °F 20.2 °F 30.36 in ESE 5.0 mph 6.0 mph 88% 0.00 in 0.00 W/m2
06:24 23.2 °F 20.2 °F 30.36 in SE 3.0 mph 7.0 mph 88% 0.00 in 0.00 W/m2
06:29 23.2 °F 19.9 °F 30.36 in ESE 4.0 mph 7.0 mph 87% 0.00 in 0.00 W/m2
06:34 23.2 °F 19.9 °F 30.36 in ESE 3.0 mph 7.0 mph 87% 0.00 in 0.00 W/m2
06:39 23.2 °F 20.2 °F 30.36 in ESE 4.0 mph 7.0 mph 88% 0.00 in 0.00 W/m2
06:44 23.2 °F 19.9 °F 30.36 in ESE 3.0 mph 6.0 mph 87% 0.00 in 0.00 W/m2
06:49 23.2 °F 20.2 °F 30.36 in ESE 3.0 mph 6.0 mph 88% 0.00 in 0.00 W/m2
06:54 23.3 °F 20.3 °F 30.36 in ESE 3.0 mph 6.0 mph 88% 0.00 in 0.00 W/m2
06:59 23.3 °F 20.3 °F 30.36 in SE 3.0 mph 6.0 mph 88% 0.00 in 0.00 W/m2
07:04 23.3 °F 20.3 °F 30.36 in ESE 4.0 mph 4.0 mph 88% 0.00 in 0.00 W/m2
07:09 23.3 °F 20.3 °F 30.36 in SE 3.0 mph 5.0 mph 88% 0.00 in 0.00 W/m2
07:14 23.3 °F 20.3 °F 30.36 in ESE 3.0 mph 5.0 mph 88% 0.00 in 0.00 W/m2
07:19 23.3 °F 20.3 °F 30.36 in SE 2.0 mph 4.0 mph 88% 0.00 in 0.00 W/m2
07:24 23.3 °F 20.3 °F 30.36 in SE 2.0 mph 4.0 mph 88% 0.00 in 0.00 W/m2
07:29 23.3 °F 20.3 °F 30.36 in ESE 2.0 mph 4.0 mph 88% 0.00 in 0.00 W/m2
07:34 23.3 °F 20.3 °F 30.36 in East 5.0 mph 6.0 mph 88% 0.00 in 0.00 W/m2
07:39 23.3 °F 20.3 °F 30.36 in East 3.0 mph 6.0 mph 88% 0.00 in 5.00 W/m2
07:44 23.3 °F 20.3 °F 30.36 in East 5.0 mph 7.0 mph 88% 0.00 in 9.00 W/m2
07:49 23.3 °F 20.3 °F 30.36 in East 5.0 mph 7.0 mph 88% 0.00 in 11.00 W/m2
07:54 23.4 °F 20.4 °F 30.36 in ENE 4.0 mph 7.0 mph 88% 0.00 in 14.00 W/m2
07:58 23.4 °F 20.4 °F 30.36 in East 3.0 mph 6.0 mph 88% 0.00 in 18.00 W/m2
08:03 23.4 °F 20.4 °F 30.36 in East 4.0 mph 6.0 mph 88% 0.00 in 23.00 W/m2
08:08 23.4 °F 20.1 °F 30.36 in East 3.0 mph 6.0 mph 87% 0.00 in 26.00 W/m2
08:12 23.4 °F 20.1 °F 30.36 in ENE 3.0 mph 6.0 mph 87% 0.00 in 30.00 W/m2
08:17 23.4 °F 20.1 °F 30.37 in ENE 3.0 mph 6.0 mph 87% 0.00 in 35.00 W/m2
08:21 23.4 °F 20.1 °F 30.37 in East 5.0 mph 7.0 mph 87% 0.00 in 39.00 W/m2
08:26 23.4 °F 20.1 °F 30.37 in East 5.0 mph 7.0 mph 87% 0.00 in 42.00 W/m2
08:30 23.5 °F 20.2 °F 30.37 in ESE 4.0 mph 7.0 mph 87% 0.00 in 44.00 W/m2
08:34 23.5 °F 20.2 °F 30.37 in East 2.0 mph 7.0 mph 87% 0.00 in 47.00 W/m2
08:39 23.6 °F 20.3 °F 30.37 in East 7.0 mph 7.0 mph 87% 0.00 in 54.00 W/m2
08:43 23.6 °F 20.3 °F 30.37 in East 5.0 mph 7.0 mph 87% 0.00 in 56.00 W/m2
08:48 23.7 °F 20.4 °F 30.37 in East 6.0 mph 7.0 mph 87% 0.00 in 54.00 W/m2
08:52 23.8 °F 20.5 °F 30.37 in ENE 2.0 mph 7.0 mph 87% 0.00 in 62.00 W/m2
08:56 23.9 °F 20.6 °F 30.38 in ENE 3.0 mph 7.0 mph 87% 0.00 in 67.00 W/m2
09:00 23.9 °F 20.6 °F 30.38 in ENE 5.0 mph 7.0 mph 87% 0.00 in 60.00 W/m2
09:05 23.9 °F 20.6 °F 30.38 in East 5.0 mph 8.0 mph 87% 0.00 in 54.00 W/m2
09:10 23.9 °F 20.6 °F 30.38 in East 5.0 mph 8.0 mph 87% 0.00 in 67.00 W/m2
09:14 24.0 °F 20.4 °F 30.38 in ESE 2.0 mph 7.0 mph 86% 0.00 in 70.00 W/m2
09:18 24.0 °F 20.4 °F 30.38 in East 3.0 mph 7.0 mph 86% 0.00 in 74.00 W/m2
09:22 24.1 °F 20.5 °F 30.38 in ESE 3.0 mph 7.0 mph 86% 0.00 in 81.00 W/m2
09:26 24.2 °F 20.9 °F 30.38 in East 3.0 mph 7.0 mph 87% 0.00 in 77.00 W/m2
09:31 24.3 °F 21.0 °F 30.38 in East 6.0 mph 8.0 mph 87% 0.00 in 84.00 W/m2
09:36 24.3 °F 20.7 °F 30.38 in ESE 7.0 mph 8.0 mph 86% 0.00 in 100.00 W/m2
09:40 24.3 °F 20.7 °F 30.38 in ESE 5.0 mph 8.0 mph 86% 0.00 in 139.00 W/m2
09:44 24.4 °F 20.8 °F 30.38 in ESE 3.0 mph 8.0 mph 86% 0.00 in 144.00 W/m2
09:49 24.5 °F 20.9 °F 30.38 in ESE 6.0 mph 8.0 mph 86% 0.00 in 151.00 W/m2
09:53 24.5 °F 20.9 °F 30.38 in ESE 5.0 mph 8.0 mph 86% 0.00 in 148.00 W/m2
09:57 24.6 °F 20.7 °F 30.39 in East 6.0 mph 8.0 mph 85% 0.00 in 134.00 W/m2
10:02 24.7 °F 20.8 °F 30.39 in ESE 4.0 mph 8.0 mph 85% 0.00 in 127.00 W/m2
10:06 24.7 °F 20.8 °F 30.39 in ESE 2.0 mph 8.0 mph 85% 0.00 in 130.00 W/m2
10:11 24.8 °F 20.9 °F 30.38 in ESE 7.0 mph 8.0 mph 85% 0.00 in 142.00 W/m2
10:15 24.8 °F 20.9 °F 30.38 in ESE 7.0 mph 8.0 mph 85% 0.00 in 144.00 W/m2
10:19 24.8 °F 20.7 °F 30.38 in SE 6.0 mph 8.0 mph 84% 0.00 in 139.00 W/m2
10:23 24.8 °F 20.7 °F 30.39 in ESE 5.0 mph 8.0 mph 84% 0.00 in 149.00 W/m2
10:27 24.8 °F 20.7 °F 30.38 in East 3.0 mph 8.0 mph 84% 0.00 in 158.00 W/m2
10:32 24.9 °F 20.8 °F 30.39 in ESE 4.0 mph 8.0 mph 84% 0.00 in 155.00 W/m2
10:36 25.1 °F 20.9 °F 30.38 in ESE 3.0 mph 8.0 mph 84% 0.00 in 162.00 W/m2
10:41 25.2 °F 21.3 °F 30.39 in SSE 3.0 mph 8.0 mph 85% 0.00 in 172.00 W/m2
10:44 25.3 °F 21.1 °F 30.38 in ESE 3.0 mph 8.0 mph 84% 0.00 in 178.00 W/m2
10:49 25.3 °F 21.1 °F 30.38 in SE 4.0 mph 8.0 mph 84% 0.00 in 169.00 W/m2
10:53 25.3 °F 21.4 °F 30.38 in ESE 7.0 mph 8.0 mph 85% 0.00 in 172.00 W/m2
10:58 25.3 °F 21.1 °F 30.38 in SE 4.0 mph 8.0 mph 84% 0.00 in 190.00 W/m2
11:02 25.5 °F 21.3 °F 30.38 in SSE 7.0 mph 8.0 mph 84% 0.00 in 192.00 W/m2
11:06 25.5 °F 21.1 °F 30.39 in SSE 3.0 mph 8.0 mph 83% 0.00 in 206.00 W/m2
11:11 25.6 °F 21.2 °F 30.39 in SE 5.0 mph 8.0 mph 83% 0.00 in 207.00 W/m2
11:15 25.8 °F 21.3 °F 30.38 in SE 3.0 mph 7.0 mph 83% 0.00 in 202.00 W/m2
11:19 25.7 °F 21.3 °F 30.38 in SE 7.0 mph 8.0 mph 83% 0.00 in 220.00 W/m2
11:24 25.7 °F 21.0 °F 30.38 in SE 7.0 mph 8.0 mph 82% 0.00 in 241.00 W/m2
11:28 25.8 °F 21.1 °F 30.38 in ESE 4.0 mph 9.0 mph 82% 0.00 in 258.00 W/m2
11:33 26.1 °F 21.6 °F 30.38 in SE 4.0 mph 9.0 mph 83% 0.00 in 288.00 W/m2
11:37 26.3 °F 21.6 °F 30.38 in SE 7.0 mph 9.0 mph 82% 0.00 in 292.00 W/m2
11:41 26.4 °F 21.9 °F 30.38 in SE 5.0 mph 8.0 mph 83% 0.00 in 272.00 W/m2
11:45 26.4 °F 21.7 °F 30.38 in ESE 3.0 mph 7.0 mph 82% 0.00 in 260.00 W/m2
11:49 26.3 °F 21.3 °F 30.38 in SSE 6.0 mph 8.0 mph 81% 0.00 in 260.00 W/m2
11:54 26.3 °F 21.3 °F 30.38 in SE 6.0 mph 8.0 mph 81% 0.00 in 257.00 W/m2
11:58 26.5 °F 21.2 °F 30.38 in SE 5.0 mph 8.0 mph 80% 0.00 in 251.00 W/m2
12:02 26.6 °F 21.6 °F 30.38 in ESE 4.0 mph 7.0 mph 81% 0.00 in 248.00 W/m2
12:07 26.7 °F 21.7 °F 30.38 in SE 4.0 mph 8.0 mph 81% 0.00 in 234.00 W/m2
12:11 26.8 °F 21.8 °F 30.38 in ESE 3.0 mph 8.0 mph 81% 0.00 in 218.00 W/m2
12:16 26.9 °F 21.8 °F 30.38 in ESE 7.0 mph 8.0 mph 81% 0.00 in 209.00 W/m2
12:20 26.9 °F 21.8 °F 30.38 in SE 5.0 mph 8.0 mph 81% 0.00 in 207.00 W/m2
12:24 27.0 °F 21.7 °F 30.38 in SSE 3.0 mph 8.0 mph 80% 0.00 in 213.00 W/m2
12:27 27.0 °F 21.7 °F 30.38 in ESE 5.0 mph 8.0 mph 80% 0.00 in 220.00 W/m2
12:31 27.1 °F 21.7 °F 30.38 in SE 6.0 mph 7.0 mph 80% 0.00 in 229.00 W/m2
12:35 27.1 °F 21.5 °F 30.38 in SE 5.0 mph 7.0 mph 79% 0.00 in 216.00 W/m2
12:38 27.1 °F 21.5 °F 30.38 in ESE 7.0 mph 8.0 mph 79% 0.00 in 214.00 W/m2
12:42 27.1 °F 21.2 °F 30.38 in SE 5.0 mph 8.0 mph 78% 0.00 in 223.00 W/m2
12:46 27.2 °F 21.2 °F 30.38 in East 5.0 mph 8.0 mph 78% 0.00 in 236.00 W/m2
12:50 27.4 °F 21.7 °F 30.38 in SE 4.0 mph 8.0 mph 79% 0.00 in 253.00 W/m2
12:55 27.5 °F 21.8 °F 30.38 in ESE 7.0 mph 8.0 mph 79% 0.00 in 253.00 W/m2
12:59 27.6 °F 21.6 °F 30.38 in SE 4.0 mph 8.0 mph 78% 0.00 in 269.00 W/m2
13:03 27.6 °F 21.0 °F 30.38 in SE 3.0 mph 8.0 mph 76% 0.00 in 285.00 W/m2
13:07 27.6 °F 21.0 °F 30.38 in ESE 4.0 mph 7.0 mph 76% 0.00 in 278.00 W/m2
13:11 27.7 °F 21.1 °F 30.38 in SSE 5.0 mph 7.0 mph 76% 0.00 in 258.00 W/m2
13:16 27.7 °F 21.4 °F 30.38 in SE 5.0 mph 7.0 mph 77% 0.00 in 234.00 W/m2
13:20 27.7 °F 21.4 °F 30.38 in SE 6.0 mph 8.0 mph 77% 0.00 in 230.00 W/m2
13:24 27.8 °F 21.5 °F 30.38 in SE 4.0 mph 8.0 mph 77% 0.00 in 241.00 W/m2
13:28 27.9 °F 21.9 °F 30.38 in ESE 4.0 mph 8.0 mph 78% 0.00 in 251.00 W/m2
13:32 28.1 °F 22.1 °F 30.37 in East 6.0 mph 8.0 mph 78% 0.00 in 267.00 W/m2
13:37 28.1 °F 22.1 °F 30.37 in SSE 3.0 mph 8.0 mph 78% 0.00 in 257.00 W/m2
13:42 28.3 °F 22.6 °F 30.37 in SE 5.0 mph 8.0 mph 79% 0.00 in 258.00 W/m2
13:46 28.3 °F 22.6 °F 30.38 in SE 2.0 mph 7.0 mph 79% 0.00 in 278.00 W/m2
13:50 28.4 °F 22.7 °F 30.38 in ESE 2.0 mph 7.0 mph 79% 0.00 in 255.00 W/m2
13:55 28.5 °F 22.8 °F 30.37 in ESE 3.0 mph 8.0 mph 79% 0.00 in 236.00 W/m2
13:59 28.5 °F 22.5 °F 30.37 in SE 3.0 mph 8.0 mph 78% 0.00 in 223.00 W/m2
14:03 28.5 °F 22.8 °F 30.37 in ESE 5.0 mph 8.0 mph 79% 0.00 in 232.00 W/m2
14:07 28.7 °F 23.0 °F 30.37 in East 5.0 mph 8.0 mph 79% 0.00 in 251.00 W/m2
14:12 28.7 °F 23.3 °F 30.37 in SE 7.0 mph 8.0 mph 80% 0.00 in 265.00 W/m2
14:16 28.8 °F 23.1 °F 30.37 in SE 7.0 mph 8.0 mph 79% 0.00 in 299.00 W/m2
14:20 28.8 °F 23.1 °F 30.37 in SE 7.0 mph 8.0 mph 79% 0.00 in 311.00 W/m2
14:25 29.0 °F 23.6 °F 30.36 in SE 5.0 mph 7.0 mph 80% 0.00 in 292.00 W/m2
14:29 29.2 °F 23.8 °F 30.36 in SSE 3.0 mph 7.0 mph 80% 0.00 in 272.00 W/m2
14:32 29.3 °F 23.6 °F 30.36 in SSE 6.0 mph 7.0 mph 79% 0.00 in 262.00 W/m2
14:36 29.3 °F 23.6 °F 30.36 in South 6.0 mph 7.0 mph 79% 0.00 in 241.00 W/m2
14:42 29.4 °F 23.4 °F 30.36 in SSE 5.0 mph 6.0 mph 78% 0.00 in 241.00 W/m2
14:50 29.4 °F 23.4 °F 30.36 in South 4.0 mph 7.0 mph 78% 0.00 in 243.00 W/m2
14:58 29.4 °F 23.4 °F 30.35 in ESE 5.0 mph 7.0 mph 78% 0.00 in 223.00 W/m2
15:06 29.6 °F 23.9 °F 30.35 in SE 4.0 mph 7.0 mph 79% 0.00 in 225.00 W/m2
15:14 29.7 °F 23.7 °F 30.35 in ESE 5.0 mph 7.0 mph 78% 0.00 in 241.00 W/m2
15:21 29.9 °F 24.2 °F 30.35 in ESE 3.0 mph 7.0 mph 79% 0.00 in 255.00 W/m2
15:30 30.2 °F 24.2 °F 30.35 in SSE 5.0 mph 7.0 mph 78% 0.00 in 267.00 W/m2
15:38 30.3 °F 24.3 °F 30.34 in SE 3.0 mph 7.0 mph 78% 0.00 in 251.00 W/m2
15:49 30.5 °F 24.5 °F 30.34 in SE 4.0 mph 8.0 mph 78% 0.00 in 246.00 W/m2
16:01 30.4 °F 24.4 °F 30.34 in SSE 3.0 mph 7.0 mph 78% 0.00 in 227.00 W/m2
16:15 30.7 °F 24.7 °F 30.34 in SE 6.0 mph 7.0 mph 78% 0.00 in 199.00 W/m2
16:37 30.8 °F 25.1 °F 30.34 in SE 4.0 mph 8.0 mph 79% 0.00 in 178.00 W/m2
16:49 30.8 °F 25.1 °F 30.33 in SE 4.0 mph 8.0 mph 79% 0.00 in 197.00 W/m2
16:54 30.9 °F 25.2 °F 30.33 in SE 5.0 mph 8.0 mph 79% 0.00 in 185.00 W/m2
16:59 31.0 °F 25.2 °F 30.33 in SE 4.0 mph 7.0 mph 79% 0.00 in 176.00 W/m2
17:04 31.0 °F 25.2 °F 30.33 in SE 4.0 mph 8.0 mph 79% 0.00 in 160.00 W/m2
17:09 30.9 °F 24.8 °F 30.33 in SE 6.0 mph 9.0 mph 78% 0.00 in 155.00 W/m2
17:14 30.8 °F 24.7 °F 30.33 in SSE 4.0 mph 9.0 mph 78% 0.00 in 156.00 W/m2
17:19 30.9 °F 25.2 °F 30.33 in ESE 4.0 mph 8.0 mph 79% 0.00 in 155.00 W/m2
17:24 31.1 °F 25.3 °F 30.33 in SSE 3.0 mph 8.0 mph 79% 0.00 in 167.00 W/m2
17:29 31.2 °F 25.4 °F 30.33 in ESE 5.0 mph 8.0 mph 79% 0.00 in 162.00 W/m2
17:34 31.1 °F 25.0 °F 30.33 in SE 4.0 mph 8.0 mph 78% 0.00 in 153.00 W/m2
17:39 31.1 °F 25.3 °F 30.33 in SSE 4.0 mph 8.0 mph 79% 0.00 in 155.00 W/m2
17:44 31.2 °F 25.4 °F 30.32 in SE 5.0 mph 8.0 mph 79% 0.00 in 153.00 W/m2
17:49 31.2 °F 25.1 °F 30.32 in SE 4.0 mph 9.0 mph 78% 0.00 in 151.00 W/m2
17:54 31.3 °F 25.5 °F 30.32 in SE 4.0 mph 9.0 mph 79% 0.00 in 155.00 W/m2
17:59 31.4 °F 25.6 °F 30.32 in SSE 5.0 mph 8.0 mph 79% 0.00 in 142.00 W/m2
18:04 31.4 °F 25.3 °F 30.32 in SE 5.0 mph 9.0 mph 78% 0.00 in 134.00 W/m2
18:09 31.4 °F 25.3 °F 30.32 in ESE 7.0 mph 9.0 mph 78% 0.00 in 127.00 W/m2
18:14 31.4 °F 25.3 °F 30.32 in SSE 7.0 mph 8.0 mph 78% 0.00 in 113.00 W/m2
18:19 31.4 °F 25.3 °F 30.32 in SE 7.0 mph 9.0 mph 78% 0.00 in 97.00 W/m2
18:24 31.4 °F 25.3 °F 30.32 in ESE 7.0 mph 9.0 mph 78% 0.00 in 98.00 W/m2
18:29 31.5 °F 25.4 °F 30.32 in SE 5.0 mph 8.0 mph 78% 0.00 in 93.00 W/m2
18:34 31.4 °F 25.3 °F 30.32 in SE 5.0 mph 10.0 mph 78% 0.00 in 88.00 W/m2
18:39 31.5 °F 25.7 °F 30.32 in SE 5.0 mph 10.0 mph 79% 0.00 in 81.00 W/m2
18:44 31.4 °F 25.6 °F 30.32 in SE 3.0 mph 9.0 mph 79% 0.00 in 72.00 W/m2
18:49 31.5 °F 25.7 °F 30.32 in SE 5.0 mph 8.0 mph 79% 0.00 in 62.00 W/m2
18:54 31.4 °F 25.6 °F 30.32 in SSE 4.0 mph 8.0 mph 79% 0.00 in 60.00 W/m2
18:59 31.4 °F 25.9 °F 30.31 in SE 7.0 mph 8.0 mph 80% 0.00 in 62.00 W/m2
19:04 31.4 °F 25.6 °F 30.31 in SE 3.0 mph 8.0 mph 79% 0.00 in 62.00 W/m2
19:09 31.3 °F 25.8 °F 30.31 in SE 6.0 mph 9.0 mph 80% 0.00 in 58.00 W/m2
19:14 31.2 °F 25.7 °F 30.31 in ESE 9.0 mph 9.0 mph 80% 0.00 in 53.00 W/m2
19:19 31.1 °F 25.7 °F 30.31 in SE 8.0 mph 10.0 mph 80% 0.00 in 46.00 W/m2
19:24 31.0 °F 25.6 °F 30.30 in ESE 9.0 mph 10.0 mph 80% 0.00 in 39.00 W/m2
19:29 30.7 °F 25.6 °F 30.31 in SE 7.0 mph 9.0 mph 81% 0.00 in 32.00 W/m2
19:34 30.5 °F 25.7 °F 30.30 in SE 5.0 mph 9.0 mph 82% 0.00 in 26.00 W/m2
19:39 30.4 °F 25.6 °F 30.30 in ESE 4.0 mph 9.0 mph 82% 0.00 in 23.00 W/m2
19:44 30.4 °F 25.6 °F 30.30 in SE 5.0 mph 9.0 mph 82% 0.00 in 18.00 W/m2
19:49 30.4 °F 25.9 °F 30.30 in SE 5.0 mph 9.0 mph 83% 0.00 in 12.00 W/m2
19:54 30.4 °F 25.9 °F 30.30 in ESE 7.0 mph 9.0 mph 83% 0.00 in 7.00 W/m2
19:59 30.4 °F 25.9 °F 30.30 in ESE 8.0 mph 10.0 mph 83% 0.00 in 5.00 W/m2
20:04 30.3 °F 26.0 °F 30.30 in ESE 4.0 mph 10.0 mph 84% 0.00 in 0.00 W/m2
20:09 30.3 °F 26.0 °F 30.30 in ESE 7.0 mph 10.0 mph 84% 0.00 in 0.00 W/m2
20:14 30.3 °F 26.0 °F 30.30 in ESE 5.0 mph 9.0 mph 84% 0.00 in 0.00 W/m2
20:19 30.3 °F 26.0 °F 30.30 in SE 5.0 mph 8.0 mph 84% 0.00 in 0.00 W/m2
20:24 30.3 °F 26.0 °F 30.30 in ESE 4.0 mph 8.0 mph 84% 0.00 in 0.00 W/m2
20:29 30.3 °F 26.3 °F 30.30 in SE 5.0 mph 8.0 mph 85% 0.00 in 0.00 W/m2
20:34 30.3 °F 26.3 °F 30.30 in SSE 4.0 mph 7.0 mph 85% 0.00 in 0.00 W/m2
20:39 30.4 °F 26.4 °F 30.30 in SE 5.0 mph 7.0 mph 85% 0.00 in 0.00 W/m2
20:44 30.5 °F 26.5 °F 30.30 in SE 3.0 mph 6.0 mph 85% 0.00 in 0.00 W/m2
20:49 30.5 °F 26.5 °F 30.30 in SE 4.0 mph 5.0 mph 85% 0.00 in 0.00 W/m2
20:54 30.5 °F 26.5 °F 30.30 in SE 4.0 mph 5.0 mph 85% 0.00 in 0.00 W/m2
20:59 30.6 °F 26.6 °F 30.30 in SE 6.0 mph 8.0 mph 85% 0.00 in 0.00 W/m2
21:04 30.7 °F 26.7 °F 30.30 in SE 4.0 mph 8.0 mph 85% 0.00 in 0.00 W/m2
21:09 30.8 °F 26.8 °F 30.30 in SE 3.0 mph 7.0 mph 85% 0.00 in 0.00 W/m2
21:14 30.8 °F 26.8 °F 30.30 in SE 6.0 mph 7.0 mph 85% 0.00 in 0.00 W/m2
21:19 30.9 °F 27.2 °F 30.30 in SSE 4.0 mph 6.0 mph 86% 0.00 in 0.00 W/m2
21:24 30.9 °F 27.2 °F 30.30 in SE 4.0 mph 6.0 mph 86% 0.00 in 0.00 W/m2
21:29 31.0 °F 27.3 °F 30.30 in SSE 3.0 mph 6.0 mph 86% 0.00 in 0.00 W/m2
21:34 31.0 °F 27.3 °F 30.30 in SSE 4.0 mph 7.0 mph 86% 0.00 in 0.00 W/m2
21:39 31.0 °F 27.3 °F 30.30 in SE 4.0 mph 7.0 mph 86% 0.00 in 0.00 W/m2
21:44 31.0 °F 27.3 °F 30.30 in SSE 4.0 mph 6.0 mph 86% 0.00 in 0.00 W/m2
21:49 31.0 °F 27.3 °F 30.31 in SSE 4.0 mph 7.0 mph 86% 0.00 in 0.00 W/m2
21:54 31.0 °F 27.3 °F 30.31 in SE 3.0 mph 7.0 mph 86% 0.00 in 0.00 W/m2
21:59 31.0 °F 27.3 °F 30.31 in SE 2.0 mph 4.0 mph 86% 0.00 in 0.00 W/m2
22:04 31.0 °F 27.3 °F 30.31 in SE 3.0 mph 4.0 mph 86% 0.00 in 0.00 W/m2
22:09 31.0 °F 27.6 °F 30.31 in SE 3.0 mph 5.0 mph 87% 0.00 in 0.00 W/m2
22:14 31.0 °F 27.6 °F 30.31 in SE 3.0 mph 5.0 mph 87% 0.00 in 0.00 W/m2
22:19 30.9 °F 27.5 °F 30.31 in SE 3.0 mph 5.0 mph 87% 0.00 in 0.00 W/m2
22:24 30.9 °F 27.5 °F 30.31 in SE 4.0 mph 5.0 mph 87% 0.00 in 0.00 W/m2
22:29 30.9 °F 27.5 °F 30.31 in SSE 2.0 mph 5.0 mph 87% 0.00 in 0.00 W/m2
22:34 30.8 °F 27.7 °F 30.31 in SE 3.0 mph 4.0 mph 88% 0.00 in 0.00 W/m2
22:39 30.9 °F 27.8 °F 30.31 in SE 5.0 mph 5.0 mph 88% 0.00 in 0.00 W/m2
22:44 30.9 °F 27.8 °F 30.30 in SE 5.0 mph 5.0 mph 88% 0.00 in 0.00 W/m2
22:49 30.8 °F 27.7 °F 30.30 in SE 6.0 mph 7.0 mph 88% 0.00 in 0.00 W/m2
22:54 30.8 °F 27.7 °F 30.30 in SE 4.0 mph 8.0 mph 88% 0.00 in 0.00 W/m2
22:59 30.8 °F 27.7 °F 30.30 in ESE 4.0 mph 8.0 mph 88% 0.00 in 0.00 W/m2
23:04 30.8 °F 27.7 °F 30.29 in ESE 5.0 mph 8.0 mph 88% 0.00 in 0.00 W/m2
23:09 30.8 °F 27.7 °F 30.29 in ESE 7.0 mph 8.0 mph 88% 0.00 in 0.00 W/m2
23:14 30.7 °F 27.6 °F 30.29 in ESE 7.0 mph 8.0 mph 88% 0.00 in 0.00 W/m2
23:19 30.7 °F 27.8 °F 30.29 in ESE 7.0 mph 8.0 mph 89% 0.00 in 0.00 W/m2
23:24 30.8 °F 27.9 °F 30.29 in SE 4.0 mph 7.0 mph 89% 0.00 in 0.00 W/m2
23:29 30.8 °F 27.9 °F 30.29 in ESE 5.0 mph 7.0 mph 89% 0.00 in 0.00 W/m2
23:34 30.8 °F 27.9 °F 30.29 in ESE 4.0 mph 7.0 mph 89% 0.00 in 0.00 W/m2
23:39 30.8 °F 27.9 °F 30.28 in ESE 4.0 mph 8.0 mph 89% 0.00 in 0.00 W/m2
23:44 30.8 °F 27.9 °F 30.28 in SE 3.0 mph 8.0 mph 89% 0.00 in 0.00 W/m2
23:49 30.8 °F 27.9 °F 30.28 in SE 6.0 mph 8.0 mph 89% 0.00 in 0.00 W/m2
23:54 30.9 °F 28.0 °F 30.28 in SE 6.0 mph 7.0 mph 89% 0.00 in 0.00 W/m2
23:59 30.8 °F 27.9 °F 30.28 in SE 6.0 mph 7.0 mph 89% 0.00 in 0.00 W/m2
Bismarck, North Dakota, USA
Compliments of Weather Underground - 4 mb